Time;durP1;ratioP1;P1;durP2;ratioP2;P2;SDS_P1;SDS_P2;PMS_P1;PMS_P2;Temp;Humidity;BMP_temperature;BMP_pressure;BME280_temperature;BME280_humidity;BME280_pressure;Samples;Min_cycle;Max_cycle;Signal;HPM_P1;HPM_P2
2023/01/11 00:00:33;;;;;;;12.30;8.73;;;6.20;99.90;;;;;;4229521;28;20043;-61
2023/01/11 00:02:34;;;;;;;13.97;9.17;;;6.10;99.90;;;;;;4229869;28;20108;-60
2023/01/11 00:04:35;;;;;;;11.83;8.40;;;6.10;99.90;;;;;;4229512;28;20039;-59
2023/01/11 00:06:36;;;;;;;14.40;9.53;;;6.10;99.90;;;;;;4230510;28;20039;-61
2023/01/11 00:08:38;;;;;;;12.97;8.37;;;6.10;99.90;;;;;;4229432;28;20043;-61
2023/01/11 00:10:41;;;;;;;14.63;9.47;;;6.10;99.90;;;;;;4230387;28;20799;-62
2023/01/11 00:12:42;;;;;;;12.77;7.97;;;6.10;99.90;;;;;;4228932;28;20035;-59
2023/01/11 00:14:43;;;;;;;13.03;8.43;;;6.10;99.90;;;;;;4230290;28;20045;-61
2023/01/11 00:16:44;;;;;;;11.90;8.27;;;6.10;99.90;;;;;;4229128;28;20036;-60
2023/01/11 00:18:45;;;;;;;13.37;9.00;;;6.10;99.90;;;;;;4229893;28;20381;-68
2023/01/11 00:20:46;;;;;;;13.20;8.50;;;6.00;99.90;;;;;;4229371;28;20097;-61
2023/01/11 00:22:47;;;;;;;11.23;7.60;;;6.10;99.90;;;;;;4227910;28;20084;-64
2023/01/11 00:24:48;;;;;;;10.83;7.63;;;6.10;99.90;;;;;;4229712;28;20015;-61
2023/01/11 00:26:49;;;;;;;15.23;8.80;;;6.10;99.90;;;;;;4229289;28;20032;-60
2023/01/11 00:28:51;;;;;;;14.20;8.80;;;6.10;99.90;;;;;;4230231;28;20123;-61
2023/01/11 00:30:52;;;;;;;13.33;8.43;;;6.10;99.90;;;;;;4229154;28;20073;-66
2023/01/11 00:32:55;;;;;;;12.50;8.20;;;6.10;99.90;;;;;;4230006;28;20036;-59
2023/01/11 00:34:56;;;;;;;13.80;8.20;;;6.10;99.90;;;;;;4228972;28;20084;-66
2023/01/11 00:36:57;;;;;;;12.70;7.93;;;6.10;99.90;;;;;;4230088;28;20089;-67
2023/01/11 00:38:59;;;;;;;10.43;7.57;;;6.10;99.90;;;;;;4228779;28;20081;-70
2023/01/11 00:47:55;;;;;;;11.90;8.47;;;6.10;99.90;;;;;;4229898;28;20039;-65
2023/01/11 00:48:03;;;;;;;12.47;8.10;;;6.10;99.90;;;;;;4228729;28;20096;-68
2023/01/11 00:50:05;;;;;;;13.03;7.90;;;6.10;99.90;;;;;;4229943;28;20093;-61
2023/01/11 00:52:08;;;;;;;11.63;8.13;;;6.10;99.90;;;;;;4228693;28;20039;-64
2023/01/11 00:54:09;;;;;;;11.30;7.27;;;6.10;99.90;;;;;;4229724;28;20055;-65
2023/01/11 00:56:10;;;;;;;11.03;7.33;;;6.10;99.90;;;;;;4228747;28;20036;-69
2023/01/11 00:58:11;;;;;;;9.67;6.97;;;6.00;99.90;;;;;;4228774;28;20035;-65
2023/01/11 01:00:13;;;;;;;12.10;8.10;;;6.00;99.90;;;;;;4228163;28;20076;-65
2023/01/11 01:02:14;;;;;;;10.93;7.67;;;6.00;99.90;;;;;;4229233;28;20035;-64
2023/01/11 01:04:15;;;;;;;10.80;7.60;;;6.00;99.90;;;;;;4228606;28;20027;-61
2023/01/11 01:06:16;;;;;;;12.07;8.03;;;6.00;99.90;;;;;;4229143;28;20080;-60
2023/01/11 01:08:17;;;;;;;14.03;8.00;;;6.00;99.90;;;;;;4228601;28;20076;-57
2023/01/11 01:10:18;;;;;;;13.13;8.20;;;6.00;99.90;;;;;;4228058;28;20093;-59
2023/01/11 01:14:41;;;;;;;12.95;8.55;;;6.00;99.90;;;;;;4228684;28;20035;-64
2023/01/11 01:16:42;;;;;;;11.33;7.30;;;6.00;99.90;;;;;;4228686;28;20491;-60
2023/01/11 01:18:43;;;;;;;11.23;8.23;;;6.00;99.90;;;;;;4226453;28;20460;-64
2023/01/11 01:20:48;;;;;;;11.27;7.13;;;6.00;99.90;;;;;;4229315;28;20044;-60
2023/01/11 01:22:50;;;;;;;13.00;7.63;;;6.00;99.90;;;;;;4227651;28;20426;-61
2023/01/11 01:24:51;;;;;;;10.47;6.97;;;6.00;99.90;;;;;;4229353;28;20036;-61
2023/01/11 01:26:52;;;;;;;11.20;7.17;;;6.00;99.90;;;;;;4228235;28;20023;-66
2023/01/11 01:28:53;;;;;;;10.60;6.97;;;6.00;99.90;;;;;;4228310;28;20043;-67
2023/01/11 01:30:54;;;;;;;10.03;6.83;;;6.00;99.90;;;;;;4228013;28;20093;-70
2023/01/11 01:32:55;;;;;;;9.60;7.00;;;6.00;99.90;;;;;;4229115;28;20043;-69
2023/01/11 01:34:56;;;;;;;9.07;6.17;;;6.00;99.90;;;;;;4227213;28;20487;-68
2023/01/11 01:36:57;;;;;;;9.93;6.60;;;6.00;99.90;;;;;;4229250;28;20040;-70
2023/01/11 01:38:59;;;;;;;9.80;6.53;;;6.00;99.90;;;;;;4227996;28;20401;-68
2023/01/11 01:41:01;;;;;;;9.77;6.73;;;6.10;99.90;;;;;;4228333;28;20051;-68
2023/01/11 01:43:02;;;;;;;8.50;6.17;;;6.00;99.90;;;;;;4228024;28;20035;-71
2023/01/11 01:45:23;;;;;;;9.77;6.27;;;6.10;99.90;;;;;;4227755;28;20476;-71
2023/01/11 01:48:02;;;;;;;9.43;6.20;;;6.10;99.90;;;;;;4226163;28;20604;-68
2023/01/11 01:50:14;;;;;;;8.53;5.70;;;6.10;99.90;;;;;;4194162;28;20036;-68
2023/01/11 01:52:16;;;;;;;10.07;6.57;;;6.10;99.90;;;;;;4227910;28;20073;-60
2023/01/11 01:54:26;;;;;;;9.93;6.63;;;6.00;99.90;;;;;;4227347;28;20484;-64
2023/01/11 01:56:35;;;;;;;8.88;6.13;;;6.10;99.90;;;;;;4227392;28;20020;-63
2023/01/11 01:58:47;;;;;;;10.37;6.93;;;6.00;99.90;;;;;;4228720;28;20410;-67
2023/01/11 02:00:49;;;;;;;9.63;6.27;;;6.10;99.90;;;;;;4226126;28;20043;-60
2023/01/11 02:02:51;;;;;;;9.10;6.27;;;6.00;99.90;;;;;;4228790;28;20027;-70
2023/01/11 02:04:55;;;;;;;8.40;5.93;;;6.10;99.90;;;;;;4227594;28;20016;-63
2023/01/11 02:07:16;;;;;;;8.33;5.83;;;6.00;99.90;;;;;;4228405;28;20441;-69
2023/01/11 02:09:28;;;;;;;9.10;6.10;;;6.10;99.90;;;;;;4227347;28;20073;-65
2023/01/11 02:11:30;;;;;;;8.17;6.23;;;6.10;99.90;;;;;;4228645;28;20035;-69
2023/01/11 02:13:44;;;;;;;7.83;5.97;;;6.10;99.90;;;;;;4227366;28;20015;-70
2023/01/11 02:16:06;;;;;;;10.40;5.63;;;6.10;99.90;;;;;;4227331;28;20048;-69
2023/01/11 02:18:11;;;;;;;8.87;6.00;;;6.10;99.90;;;;;;4226948;28;20024;-63
2023/01/11 02:20:25;;;;;;;8.23;5.60;;;6.10;99.90;;;;;;4228362;28;20491;-61
2023/01/11 02:22:59;;;;;;;9.80;5.77;;;6.10;99.90;;;;;;4227352;28;20499;-60
2023/01/11 02:25:15;;;;;;;8.37;5.47;;;6.10;99.90;;;;;;4228217;28;20035;-65
2023/01/11 02:27:41;;;;;;;7.17;5.57;;;6.20;99.90;;;;;;4227163;28;20058;-62
2023/01/11 02:29:59;;;;;;;9.67;5.50;;;6.20;99.90;;;;;;4228169;28;20084;-61
2023/01/11 02:32:19;;;;;;;9.13;5.97;;;6.20;99.90;;;;;;4227603;28;20438;-60
2023/01/11 02:34:40;;;;;;;9.17;5.73;;;6.20;99.90;;;;;;4228030;28;20032;-61
2023/01/11 02:37:05;;;;;;;7.70;4.97;;;6.20;99.90;;;;;;4226738;28;20120;-69
2023/01/11 02:39:18;;;;;;;6.33;5.00;;;6.20;99.90;;;;;;4226774;28;20414;-65
2023/01/11 02:41:19;;;;;;;7.63;5.47;;;6.10;99.90;;;;;;4226896;28;20044;-66
2023/01/11 02:46:25;;;;;;;10.98;7.07;;;6.10;99.90;;;;;;4227153;28;20039;-62
2023/01/11 02:48:32;;;;;;;8.97;6.40;;;6.10;99.90;;;;;;4209588;28;20040;-69
2023/01/11 02:50:52;;;;;;;7.90;5.37;;;6.10;99.90;;;;;;4210810;28;20081;-61
2023/01/11 02:53:02;;;;;;;8.10;5.63;;;6.10;99.90;;;;;;4209419;28;20541;-71
2023/01/11 02:55:06;;;;;;;10.10;6.33;;;6.10;99.90;;;;;;4210152;28;20048;-65
2023/01/11 02:57:09;;;;;;;9.43;5.90;;;6.10;99.90;;;;;;4209747;28;20472;-55
2023/01/11 02:59:15;;;;;;;9.63;6.40;;;6.10;99.90;;;;;;4229773;28;20073;-61
2023/01/11 03:01:18;;;;;;;10.50;6.33;;;6.10;99.90;;;;;;4228383;28;20081;-66
2023/01/11 03:03:23;;;;;;;10.60;6.87;;;6.10;99.90;;;;;;4230313;28;20517;-60
2023/01/11 03:05:24;;;;;;;7.03;5.10;;;6.10;99.90;;;;;;4229380;28;20019;-61
2023/01/11 03:07:56;;;;;;;8.77;5.83;;;6.10;99.90;;;;;;4230375;28;20048;-62
2023/01/11 03:10:23;;;;;;;10.47;6.90;;;6.10;99.90;;;;;;4227124;28;20470;-66
2023/01/11 03:12:56;;;;;;;10.40;7.17;;;6.10;99.90;;;;;;4230267;28;20040;-68
2023/01/11 03:15:22;;;;;;;8.47;6.00;;;6.10;99.90;;;;;;4202446;28;20040;-69
2023/01/11 03:17:31;;;;;;;10.47;6.80;;;6.10;99.90;;;;;;4229081;28;20048;-68
2023/01/11 03:19:48;;;;;;;14.73;7.37;;;6.10;99.90;;;;;;4226737;28;20053;-69
2023/01/11 03:22:18;;;;;;;11.67;6.83;;;6.10;99.90;;;;;;4230067;28;20544;-70
2023/01/11 03:24:20;;;;;;;10.60;6.72;;;6.10;99.90;;;;;;4219530;28;20497;-61
2023/01/11 03:26:38;;;;;;;10.90;7.47;;;6.10;99.90;;;;;;4229787;28;20072;-61
2023/01/11 03:28:59;;;;;;;11.43;7.17;;;6.10;99.90;;;;;;4229274;28;20076;-62
2023/01/11 03:31:03;;;;;;;12.60;6.90;;;6.10;99.90;;;;;;4229523;28;20032;-61
2023/01/11 03:33:21;;;;;;;12.17;7.97;;;6.10;99.90;;;;;;4229138;28;20100;-62
2023/01/11 03:35:29;;;;;;;11.53;7.50;;;6.10;99.90;;;;;;4185501;28;1251230;-70
2023/01/11 03:37:41;;;;;;;13.90;8.70;;;6.10;99.90;;;;;;4230276;28;20039;-60
2023/01/11 03:39:54;;;;;;;11.47;7.73;;;6.10;99.90;;;;;;4229913;28;20092;-64
2023/01/11 03:41:59;;;;;;;16.00;9.70;;;6.10;99.90;;;;;;4229689;28;20085;-68
2023/01/11 03:44:03;;;;;;;14.50;8.23;;;6.10;99.90;;;;;;4230279;28;20499;-66
2023/01/11 03:46:12;;;;;;;13.73;9.10;;;6.10;99.90;;;;;;4229681;28;20036;-66
2023/01/11 03:48:18;;;;;;;16.20;10.10;;;6.10;99.90;;;;;;4230409;28;20031;-60
2023/01/11 03:50:21;;;;;;;18.20;9.90;;;6.10;99.90;;;;;;4229495;28;20032;-67
2023/01/11 03:52:27;;;;;;;16.37;10.00;;;6.00;99.90;;;;;;4230531;28;20035;-61
2023/01/11 03:54:30;;;;;;;19.33;11.23;;;6.00;99.90;;;;;;4229465;28;20035;-62
2023/01/11 03:57:02;;;;;;;18.30;10.63;;;6.00;99.90;;;;;;4230530;28;20016;-61
2023/01/11 03:59:04;;;;;;;22.87;14.00;;;5.90;99.90;;;;;;4226272;28;20044;-68
2023/01/11 04:01:05;;;;;;;19.50;12.07;;;5.90;99.90;;;;;;4229492;28;20027;-60
2023/01/11 04:03:08;;;;;;;18.47;10.97;;;5.90;99.90;;;;;;4228958;28;20484;-60
2023/01/11 04:05:10;;;;;;;20.93;11.30;;;5.80;99.90;;;;;;4230388;28;20036;-58
2023/01/11 04:07:11;;;;;;;19.20;11.50;;;5.80;99.90;;;;;;4229322;28;20070;-63
2023/01/11 04:09:12;;;;;;;20.47;12.50;;;5.80;99.90;;;;;;4229825;28;20163;-69
2023/01/11 04:11:14;;;;;;;21.60;12.30;;;5.80;99.90;;;;;;4229316;28;20084;-65
2023/01/11 04:13:15;;;;;;;18.63;11.30;;;5.70;99.90;;;;;;4230056;28;20093;-65
2023/01/11 04:15:16;;;;;;;17.77;11.40;;;5.70;99.90;;;;;;4229052;28;20051;-63
2023/01/11 04:17:17;;;;;;;18.43;11.77;;;5.70;99.90;;;;;;4230217;28;20027;-61
2023/01/11 04:19:18;;;;;;;22.17;12.97;;;5.70;99.90;;;;;;4229021;28;20028;-65
2023/01/11 04:21:19;;;;;;;18.93;11.40;;;5.60;99.90;;;;;;4230160;28;20024;-69
2023/01/11 04:23:20;;;;;;;17.97;10.73;;;5.60;99.90;;;;;;4229038;28;20108;-61
2023/01/11 04:25:22;;;;;;;16.87;11.00;;;5.60;99.90;;;;;;4229736;28;20074;-64
2023/01/11 04:27:23;;;;;;;18.87;11.23;;;5.60;99.90;;;;;;4229434;28;20031;-69
2023/01/11 04:29:24;;;;;;;15.47;9.77;;;5.60;99.90;;;;;;4229293;28;20039;-69
2023/01/11 04:31:25;;;;;;;14.33;9.53;;;5.70;99.90;;;;;;4229295;28;20047;-60
2023/01/11 04:33:26;;;;;;;13.60;9.13;;;5.60;99.90;;;;;;4229028;28;20692;-69
2023/01/11 04:35:28;;;;;;;12.33;8.77;;;5.60;99.90;;;;;;4229268;28;20055;-60
2023/01/11 04:37:29;;;;;;;13.37;8.47;;;5.60;99.90;;;;;;4228482;28;20116;-66
2023/01/11 04:39:30;;;;;;;16.20;9.47;;;5.60;99.90;;;;;;4229941;28;20061;-67
2023/01/11 04:43:55;;;;;;;14.57;8.97;;;5.50;99.90;;;;;;4230105;28;20365;-68
2023/01/11 04:45:59;;;;;;;11.17;7.83;;;5.40;99.90;;;;;;4227527;28;20032;-61
2023/01/11 04:48:00;;;;;;;11.83;7.50;;;5.20;99.90;;;;;;4229850;28;20023;-60
2023/01/11 04:50:01;;;;;;;12.63;8.07;;;5.10;99.90;;;;;;4228310;28;20434;-65
2023/01/11 04:52:02;;;;;;;16.30;9.50;;;5.00;99.90;;;;;;4229614;28;20081;-61
2023/01/11 04:54:04;;;;;;;13.73;9.53;;;5.00;99.90;;;;;;4228127;28;20096;-66
2023/01/11 04:56:06;;;;;;;14.93;9.13;;;5.00;99.90;;;;;;4229638;28;20035;-62
2023/01/11 04:58:07;;;;;;;33.43;18.57;;;4.90;99.90;;;;;;4227820;28;20097;-59
2023/01/11 05:00:10;;;;;;;21.17;11.23;;;4.90;99.90;;;;;;4228838;28;20275;-61
2023/01/11 05:02:12;;;;;;;35.47;22.10;;;4.90;99.90;;;;;;4225645;28;20055;-60
2023/01/11 05:04:13;;;;;;;29.60;18.07;;;4.80;99.90;;;;;;4229174;28;20032;-61
2023/01/11 05:06:15;;;;;;;21.00;12.70;;;4.80;99.90;;;;;;4228076;28;20097;-60
2023/01/11 05:08:16;;;;;;;17.67;10.83;;;4.90;99.90;;;;;;4228450;28;20043;-63
2023/01/11 05:10:17;;;;;;;15.70;10.17;;;4.90;99.90;;;;;;4228448;28;20524;-63
2023/01/11 05:12:18;;;;;;;17.77;9.87;;;4.90;99.90;;;;;;4227621;28;20557;-66
2023/01/11 05:14:19;;;;;;;16.80;11.13;;;4.80;99.90;;;;;;4228709;28;20051;-64
2023/01/11 05:16:22;;;;;;;35.03;17.83;;;4.70;99.90;;;;;;4227481;28;20417;-62
2023/01/11 05:18:23;;;;;;;40.30;20.97;;;4.70;99.90;;;;;;4228557;28;20031;-63
2023/01/11 05:20:24;;;;;;;33.87;19.03;;;4.60;99.90;;;;;;4226462;28;20089;-59
2023/01/11 05:22:25;;;;;;;35.20;17.57;;;4.60;99.90;;;;;;4228519;28;20047;-69
2023/01/11 05:24:27;;;;;;;27.23;15.70;;;4.50;99.90;;;;;;4227497;28;20077;-64
2023/01/11 05:26:33;;;;;;;27.00;15.33;;;4.50;99.90;;;;;;4228988;28;20061;-64
2023/01/11 05:28:34;;;;;;;24.17;14.90;;;4.50;99.90;;;;;;4228255;27;20042;-63
2023/01/11 05:30:35;;;;;;;25.33;15.27;;;4.60;99.90;;;;;;4234337;27;20027;-62
2023/01/11 05:32:36;;;;;;;18.60;12.90;;;4.50;99.90;;;;;;4227534;28;20092;-69
2023/01/11 05:34:37;;;;;;;23.43;13.63;;;4.60;99.90;;;;;;4224394;28;20076;-62
2023/01/11 05:36:39;;;;;;;19.60;11.83;;;4.60;99.90;;;;;;4226109;28;20877;-65
2023/01/11 05:38:41;;;;;;;20.60;12.47;;;4.60;99.90;;;;;;4227561;28;20036;-69
2023/01/11 05:40:42;;;;;;;27.70;16.63;;;4.60;99.90;;;;;;4227788;28;20528;-67
2023/01/11 05:42:45;;;;;;;21.07;13.10;;;4.70;99.90;;;;;;4227331;28;20078;-61
2023/01/11 05:47:06;;;;;;;26.47;14.90;;;4.70;99.90;;;;;;4225637;28;20049;-62
2023/01/11 05:49:08;;;;;;;27.33;15.47;;;4.60;99.90;;;;;;4227493;28;20330;-63
2023/01/11 05:51:09;;;;;;;22.87;14.37;;;4.60;99.90;;;;;;4226979;28;20048;-71
2023/01/11 05:53:10;;;;;;;24.30;14.63;;;4.60;99.90;;;;;;4228629;28;20035;-69
2023/01/11 05:55:11;;;;;;;23.97;14.87;;;4.60;99.90;;;;;;4227249;28;20048;-66
2023/01/11 05:57:12;;;;;;;24.00;15.43;;;4.70;99.90;;;;;;4232633;27;20056;-70
2023/01/11 05:59:13;;;;;;;23.90;14.53;;;4.70;99.90;;;;;;4228027;28;20546;-62
2023/01/11 06:01:15;;;;;;;27.83;15.10;;;4.70;99.90;;;;;;4227588;28;20132;-59
2023/01/11 06:03:17;;;;;;;22.87;13.70;;;4.70;99.90;;;;;;4225453;28;20579;-63
2023/01/11 06:05:18;;;;;;;19.90;13.33;;;4.70;99.90;;;;;;4227560;28;20043;-62
2023/01/11 06:07:19;;;;;;;20.13;12.07;;;4.70;99.90;;;;;;4226931;28;20360;-66
2023/01/11 06:09:20;;;;;;;22.43;12.43;;;4.70;99.90;;;;;;4227976;28;20035;-67
2023/01/11 06:11:21;;;;;;;19.53;11.53;;;4.70;99.90;;;;;;4225805;28;20433;-62
2023/01/11 06:13:27;;;;;;;16.13;10.30;;;4.60;99.90;;;;;;4227988;28;20455;-62
2023/01/11 06:15:28;;;;;;;19.33;13.00;;;4.60;99.90;;;;;;4227371;28;20495;-62
2023/01/11 06:17:29;;;;;;;17.63;11.67;;;4.50;99.90;;;;;;4227543;28;20047;-66
2023/01/11 06:19:30;;;;;;;39.63;23.83;;;4.50;99.90;;;;;;4227628;28;20079;-62
2023/01/11 06:21:31;;;;;;;24.20;13.43;;;4.60;99.90;;;;;;4226961;28;20532;-63
2023/01/11 06:23:36;;;;;;;16.80;10.77;;;4.50;99.90;;;;;;4227846;28;20099;-60
2023/01/11 06:25:37;;;;;;;22.30;12.63;;;4.30;99.90;;;;;;4226936;28;20027;-68
2023/01/11 06:27:38;;;;;;;18.73;12.10;;;4.10;99.90;;;;;;4228141;28;20031;-68
2023/01/11 06:29:39;;;;;;;20.00;11.43;;;4.10;99.90;;;;;;4226600;28;20271;-65
2023/01/11 06:31:40;;;;;;;21.93;14.63;;;4.00;99.90;;;;;;4227847;28;20085;-63
2023/01/11 06:33:41;;;;;;;16.67;11.67;;;4.00;99.90;;;;;;4226898;28;20040;-64
2023/01/11 06:35:44;;;;;;;22.60;13.90;;;4.00;99.90;;;;;;4227965;28;20047;-64
2023/01/11 06:37:45;;;;;;;18.77;11.50;;;4.00;99.90;;;;;;4225346;28;20305;-63
2023/01/11 06:39:46;;;;;;;23.77;13.33;;;4.00;99.90;;;;;;4227907;28;20064;-62
2023/01/11 06:41:47;;;;;;;26.90;14.73;;;3.90;99.90;;;;;;4226610;28;20698;-61
2023/01/11 06:43:49;;;;;;;29.47;16.43;;;3.90;99.90;;;;;;4227653;28;20321;-66
2023/01/11 06:45:50;;;;;;;31.73;17.57;;;3.90;99.90;;;;;;4226619;28;20019;-60
2023/01/11 06:47:51;;;;;;;36.63;18.93;;;4.00;99.90;;;;;;4227177;28;20747;-61
2023/01/11 06:49:53;;;;;;;43.43;22.33;;;4.00;99.90;;;;;;4227137;28;20028;-67
2023/01/11 06:51:54;;;;;;;46.30;23.97;;;4.00;99.90;;;;;;4226794;28;20302;-66
2023/01/11 06:53:55;;;;;;;54.87;25.03;;;4.00;99.90;;;;;;4227612;28;20658;-63
2023/01/11 06:55:57;;;;;;;73.57;31.70;;;4.10;99.90;;;;;;4226356;28;20252;-65
2023/01/11 06:57:58;;;;;;;51.83;27.40;;;4.20;99.90;;;;;;4228101;28;20662;-68
2023/01/11 07:00:00;;;;;;;86.23;31.37;;;4.20;99.90;;;;;;4226503;28;20797;-62
2023/01/11 07:02:01;;;;;;;74.73;32.47;;;4.20;99.90;;;;;;4227999;28;20288;-65
2023/01/11 07:04:02;;;;;;;67.47;31.93;;;4.20;99.90;;;;;;4226581;28;20813;-60
2023/01/11 07:06:03;;;;;;;63.63;31.63;;;4.20;99.90;;;;;;4227711;28;20260;-61
2023/01/11 07:08:04;;;;;;;67.73;31.27;;;4.20;99.90;;;;;;4226433;28;20264;-62
2023/01/11 07:10:08;;;;;;;51.93;26.87;;;4.20;99.90;;;;;;4227754;28;20268;-61
2023/01/11 07:12:09;;;;;;;55.27;28.30;;;4.30;99.90;;;;;;4226431;28;20260;-60
2023/01/11 07:14:13;;;;;;;48.63;26.20;;;4.30;99.90;;;;;;4227428;28;20032;-66
2023/01/11 07:16:16;;;;;;;52.43;29.63;;;4.40;99.90;;;;;;4226379;28;20317;-61
2023/01/11 07:18:18;;;;;;;53.00;30.07;;;4.50;99.90;;;;;;4227184;28;20088;-66
2023/01/11 07:20:19;;;;;;;50.70;27.30;;;4.50;99.90;;;;;;4226955;28;20461;-64
2023/01/11 07:22:21;;;;;;;44.20;25.33;;;4.60;99.90;;;;;;4226662;28;20084;-62
2023/01/11 07:24:24;;;;;;;47.03;27.17;;;4.60;99.90;;;;;;4226868;28;20097;-61
2023/01/11 07:26:25;;;;;;;39.87;23.63;;;4.60;99.90;;;;;;4226407;28;20249;-61
2023/01/11 07:28:27;;;;;;;41.67;24.07;;;4.70;99.90;;;;;;4227632;28;20421;-62
2023/01/11 07:30:30;;;;;;;34.23;21.13;;;4.70;99.90;;;;;;4226102;28;20093;-60
2023/01/11 07:32:31;;;;;;;34.53;20.43;;;4.70;99.90;;;;;;4227983;28;20144;-61
2023/01/11 07:34:32;;;;;;;82.70;45.57;;;4.80;99.90;;;;;;4226406;28;20063;-61
2023/01/11 07:36:38;;;;;;;55.67;30.37;;;4.70;99.90;;;;;;4227526;28;20065;-60
2023/01/11 07:38:39;;;;;;;47.10;24.20;;;4.70;99.90;;;;;;4226419;28;20024;-60
2023/01/11 07:40:40;;;;;;;70.90;26.97;;;4.60;99.90;;;;;;4227675;28;20460;-59
2023/01/11 07:45:13;;;;;;;138.80;24.70;;;4.60;99.90;;;;;;4230820;28;20096;-61
2023/01/11 07:47:14;;;;;;;105.33;24.20;;;4.60;99.90;;;;;;4229545;28;20646;-67
2023/01/11 07:49:15;;;;;;;123.67;24.77;;;4.50;99.90;;;;;;4230467;28;20630;-61
2023/01/11 07:51:19;;;;;;;77.10;25.33;;;4.50;99.90;;;;;;4229465;28;20383;-62
2023/01/11 07:53:21;;;;;;;119.27;27.57;;;4.40;99.90;;;;;;4230741;28;20047;-63
2023/01/11 07:55:22;;;;;;;224.50;35.30;;;4.40;99.90;;;;;;4227916;28;20598;-60
2023/01/11 07:57:23;;;;;;;179.33;32.00;;;4.30;99.90;;;;;;4230264;27;20081;-63
2023/01/11 07:59:24;;;;;;;167.33;29.13;;;4.30;99.90;;;;;;4229257;28;20377;-61
2023/01/11 08:01:25;;;;;;;181.20;31.37;;;4.30;99.90;;;;;;4229795;28;20276;-64
2023/01/11 08:03:26;;;;;;;119.47;33.83;;;4.30;99.90;;;;;;4230001;28;20092;-63
2023/01/11 08:05:28;;;;;;;167.67;33.73;;;4.30;99.90;;;;;;4229380;28;20268;-62
2023/01/11 08:07:29;;;;;;;136.50;34.00;;;4.30;99.90;;;;;;4229881;28;20334;-62
2023/01/11 08:09:31;;;;;;;172.07;36.03;;;4.30;99.90;;;;;;4229230;28;20065;-62
2023/01/11 08:16:11;;;;;;;66.17;32.40;;;4.50;99.90;;;;;;4229544;28;20032;-61
2023/01/11 08:18:12;;;;;;;80.43;32.70;;;4.60;99.90;;;;;;4228819;28;20269;-63
2023/01/11 08:20:13;;;;;;;84.60;33.13;;;4.70;99.90;;;;;;4229748;28;20084;-61
2023/01/11 08:22:16;;;;;;;151.70;38.80;;;4.80;99.90;;;;;;4228591;28;20040;-61
2023/01/11 08:24:18;;;;;;;126.90;35.27;;;4.90;99.90;;;;;;4229814;28;20036;-62
2023/01/11 08:26:19;;;;;;;120.77;35.70;;;4.90;99.90;;;;;;4228356;28;20592;-61
2023/01/11 08:28:20;;;;;;;116.17;33.57;;;5.00;99.90;;;;;;4229775;28;20569;-61
2023/01/11 08:30:21;;;;;;;100.43;32.63;;;5.10;99.90;;;;;;4228507;28;20076;-63
2023/01/11 08:32:22;;;;;;;80.27;28.97;;;5.10;99.90;;;;;;4229911;28;20028;-62
2023/01/11 08:34:24;;;;;;;113.83;34.63;;;5.10;99.90;;;;;;4228816;28;20027;-62
2023/01/11 08:36:26;;;;;;;85.17;32.67;;;5.10;99.90;;;;;;4229642;28;20073;-68
2023/01/11 08:38:27;;;;;;;104.70;31.77;;;5.10;99.90;;;;;;4228911;28;20019;-62
2023/01/11 08:40:28;;;;;;;78.40;30.00;;;5.10;99.90;;;;;;4229248;28;20039;-63
2023/01/11 08:42:31;;;;;;;68.53;28.37;;;5.10;99.90;;;;;;4228654;28;20510;-60
2023/01/11 08:44:32;;;;;;;58.23;26.97;;;5.20;99.90;;;;;;4228788;28;20027;-62
2023/01/11 08:46:33;;;;;;;71.13;28.40;;;5.20;99.90;;;;;;4229190;28;20023;-62
2023/01/11 08:48:35;;;;;;;68.87;28.10;;;5.20;99.90;;;;;;4228138;28;20085;-64
2023/01/11 08:50:37;;;;;;;57.90;25.80;;;5.20;99.90;;;;;;4229539;28;20031;-62
2023/01/11 08:52:39;;;;;;;52.60;26.03;;;5.20;99.90;;;;;;4228307;28;20035;-62
2023/01/11 08:54:41;;;;;;;57.03;24.20;;;5.20;99.90;;;;;;4228491;28;20032;-63
2023/01/11 08:56:42;;;;;;;48.50;24.97;;;5.20;99.90;;;;;;4228154;28;20039;-64
2023/01/11 08:58:43;;;;;;;45.50;24.80;;;5.20;99.90;;;;;;4229299;28;20027;-65
2023/01/11 09:00:45;;;;;;;51.80;27.03;;;5.30;99.90;;;;;;4228028;28;20023;-61
2023/01/11 09:02:46;;;;;;;58.67;26.73;;;5.30;99.90;;;;;;4229176;28;20088;-63
2023/01/11 09:04:47;;;;;;;44.13;24.73;;;5.30;99.90;;;;;;4228251;28;20031;-61
2023/01/11 09:06:48;;;;;;;46.03;24.23;;;5.30;99.90;;;;;;4229060;28;20096;-64
2023/01/11 09:08:50;;;;;;;44.57;25.40;;;5.40;99.90;;;;;;4227968;28;20077;-64
2023/01/11 09:10:51;;;;;;;44.73;25.27;;;5.40;99.90;;;;;;4228242;28;20096;-64
2023/01/11 09:12:53;;;;;;;47.80;24.60;;;5.40;99.90;;;;;;4228355;28;20061;-63
2023/01/11 09:14:54;;;;;;;43.83;24.10;;;5.40;99.90;;;;;;4228380;28;20069;-64
2023/01/11 09:16:55;;;;;;;38.80;22.20;;;5.50;99.90;;;;;;4228344;28;20449;-62
2023/01/11 09:18:57;;;;;;;37.43;22.80;;;5.50;99.90;;;;;;4227575;28;20043;-64
2023/01/11 09:20:58;;;;;;;43.23;22.87;;;5.60;99.90;;;;;;4228863;28;20560;-62
2023/01/11 09:22:59;;;;;;;40.30;22.53;;;5.60;99.90;;;;;;4227878;28;20085;-67
2023/01/11 09:25:00;;;;;;;44.30;25.70;;;5.70;99.90;;;;;;4228985;28;20043;-66
2023/01/11 09:27:03;;;;;;;44.87;25.07;;;5.70;99.90;;;;;;4227581;28;20040;-62
2023/01/11 09:29:04;;;;;;;51.10;29.03;;;5.70;99.90;;;;;;4229046;28;20031;-63
2023/01/11 09:31:06;;;;;;;59.17;30.53;;;5.60;99.90;;;;;;4227268;28;20036;-68
2023/01/11 09:33:07;;;;;;;56.83;28.13;;;5.60;99.90;;;;;;4228828;28;20024;-64
2023/01/11 09:35:09;;;;;;;51.57;27.10;;;5.60;99.90;;;;;;4227046;28;20055;-65
2023/01/11 09:37:10;;;;;;;49.53;26.70;;;5.50;99.90;;;;;;4228442;28;20099;-62
2023/01/11 09:39:14;;;;;;;50.17;26.60;;;5.50;99.90;;;;;;4227458;28;20023;-64
2023/01/11 09:41:26;;;;;;;57.57;30.03;;;5.50;99.90;;;;;;4228181;28;20437;-62
2023/01/11 09:43:30;;;;;;;55.57;30.47;;;5.50;99.90;;;;;;4227300;28;20043;-59
2023/01/11 09:45:32;;;;;;;56.40;27.67;;;5.40;99.90;;;;;;4228349;28;20392;-66
2023/01/11 09:47:42;;;;;;;46.33;26.13;;;5.50;99.90;;;;;;4227687;28;20413;-61
2023/01/11 09:49:56;;;;;;;49.77;29.13;;;5.50;99.90;;;;;;4227886;28;20475;-66
2023/01/11 09:52:13;;;;;;;44.10;27.13;;;5.50;99.90;;;;;;4227455;28;20128;-60
2023/01/11 09:54:19;;;;;;;41.37;25.90;;;5.60;99.90;;;;;;4228412;28;20020;-62
2023/01/11 09:56:30;;;;;;;44.60;27.50;;;5.70;99.90;;;;;;4227728;28;21350;-65
2023/01/11 09:58:49;;;;;;;57.60;35.78;;;5.80;99.90;;;;;;4228185;28;20027;-62
2023/01/11 10:01:15;;;;;;;50.70;32.33;;;5.90;99.90;;;;;;4227084;28;20035;-62
2023/01/11 10:03:25;;;;;;;48.07;28.20;;;6.10;99.90;;;;;;4228257;28;20425;-63
2023/01/11 10:05:30;;;;;;;50.25;27.10;;;6.20;99.90;;;;;;4227192;28;20057;-68
2023/01/11 10:07:37;;;;;;;44.10;26.67;;;6.20;99.90;;;;;;4228100;28;20872;-66
2023/01/11 10:10:17;;;;;;;44.83;27.50;;;6.30;99.90;;;;;;4227033;28;20024;-64
2023/01/11 10:12:40;;;;;;;43.40;25.67;;;6.40;99.90;;;;;;4228338;28;20043;-65
2023/01/11 10:15:20;;;;;;;44.10;24.80;;;6.60;99.90;;;;;;4226759;28;20048;-65
2023/01/11 10:17:24;;;;;;;58.83;35.63;;;6.70;99.90;;;;;;4227741;28;20028;-63
2023/01/11 10:19:46;;;;;;;79.83;41.80;;;6.80;99.90;;;;;;4226733;28;20364;-62
2023/01/11 10:22:00;;;;;;;58.03;29.07;;;6.90;99.90;;;;;;4227510;28;20024;-62
2023/01/11 10:24:20;;;;;;;40.00;22.13;;;7.00;99.90;;;;;;4227329;28;20085;-65
2023/01/11 10:26:31;;;;;;;28.30;15.73;;;7.10;99.90;;;;;;4227207;28;20019;-61
2023/01/11 10:28:34;;;;;;;27.70;16.97;;;7.20;99.90;;;;;;4227312;28;20028;-67
2023/01/11 10:33:17;;;;;;;29.57;16.57;;;7.30;99.90;;;;;;4227758;28;20077;-60
2023/01/11 10:42:32;;;;;;;24.83;15.50;;;7.60;99.90;;;;;;4227606;28;20088;-66
2023/01/11 10:44:39;;;;;;;21.10;12.97;;;7.70;99.90;;;;;;4226396;28;20092;-60
2023/01/11 10:46:45;;;;;;;18.60;10.90;;;7.70;99.90;;;;;;4227610;28;20032;-67
2023/01/11 10:48:47;;;;;;;21.67;11.73;;;7.70;99.90;;;;;;4226604;28;20072;-61
2023/01/11 10:50:53;;;;;;;20.10;11.97;;;7.70;99.90;;;;;;4227799;28;20081;-61
2023/01/11 10:53:15;;;;;;;18.00;11.97;;;7.70;99.90;;;;;;4226532;28;20036;-62
2023/01/11 10:55:39;;;;;;;23.00;13.27;;;7.80;99.90;;;;;;4227827;28;20027;-61
2023/01/11 10:58:09;;;;;;;22.47;12.67;;;7.70;99.90;;;;;;4226592;28;20081;-66
2023/01/11 11:00:30;;;;;;;19.08;12.95;;;7.80;99.90;;;;;;4227587;28;20076;-62
2023/01/11 11:03:02;;;;;;;23.63;12.57;;;7.80;99.90;;;;;;4226428;28;20027;-66
2023/01/11 11:05:15;;;;;;;25.93;13.50;;;7.80;99.90;;;;;;4225721;28;20112;-63
2023/01/11 11:07:38;;;;;;;21.07;12.00;;;7.80;99.90;;;;;;4226883;28;20027;-65
2023/01/11 11:09:51;;;;;;;24.57;13.07;;;7.80;99.90;;;;;;4226776;28;21049;-66
2023/01/11 11:11:59;;;;;;;24.83;14.73;;;7.80;99.90;;;;;;4227154;28;20069;-65
2023/01/11 11:14:14;;;;;;;22.80;14.60;;;7.80;99.90;;;;;;4226756;28;20035;-66
2023/01/11 11:16:21;;;;;;;21.17;13.57;;;7.80;99.90;;;;;;4227217;28;20024;-63
2023/01/11 11:18:23;;;;;;;19.60;12.73;;;7.90;99.90;;;;;;4227499;28;20100;-63